Station Historical Data
Daily Summary for June 12, 2012 Units:  English    Metric   Both
« Previous Day
Next Day »
Daily Weekly Monthly Yearly Custom
  High: Low: Average:
Temperature: 81.1 °F 63.5 °F 71.3 °F
Dew Point: 71.1 °F 61.8 °F 66.2 °F
Humidity: 94% 67% 85%
Wind Speed: 13.0mph 0.0mph 3.7mph
Wind Gust: 14.0mph - -
Wind- - WNW
Pressure: 30.03 in 29.87 in -
Precipitation: 0.01 in    
Historical Graphs
 
 
Tabular Data for June 12, 2012
Time Temperature Dew Point Pressure Wind Wind Speed Wind Gust Humidity Rainfall Rate (Hourly) Conditions
00:00 66.6 °F 64.5 °F 29.87 in NNE 2.0 mph 2.0 mph 93% 0.00 in
00:05 66.4 °F 64.3 °F 29.87 in NNE 1.0 mph 2.0 mph 93% 0.00 in
00:10 66.5 °F 64.4 °F 29.87 in Calm   1.0 mph 93% 0.00 in
00:15 66.5 °F 64.4 °F 29.87 in Calm   1.0 mph 93% 0.00 in
00:20 66.3 °F 64.2 °F 29.87 in Calm   1.0 mph 93% 0.00 in
00:25 66.2 °F 64.1 °F 29.88 in WSW 2.0 mph 2.0 mph 93% 0.00 in
00:30 66.2 °F 64.1 °F 29.89 in SW 1.0 mph 2.0 mph 93% 0.00 in
00:35 66.3 °F 64.2 °F 29.90 in SW 3.0 mph 4.0 mph 93% 0.00 in
00:41 66.3 °F 64.2 °F 29.90 in West 3.0 mph 6.0 mph 93% 0.00 in
00:46 66.4 °F 64.3 °F 29.91 in WSW 5.0 mph 8.0 mph 93% 0.00 in
00:51 66.3 °F 64.2 °F 29.91 in West 7.0 mph 8.0 mph 93% 0.00 in
00:56 66.3 °F 64.2 °F 29.91 in WSW 3.0 mph 10.0 mph 93% 0.00 in
01:01 66.3 °F 64.2 °F 29.91 in SW 4.0 mph 8.0 mph 93% 0.00 in
01:06 66.2 °F 64.1 °F 29.91 in SW 7.0 mph 9.0 mph 93% 0.00 in
01:11 66.1 °F 64.0 °F 29.91 in West 7.0 mph 8.0 mph 93% 0.00 in
01:16 66.0 °F 63.9 °F 29.91 in WSW 6.0 mph 9.0 mph 93% 0.00 in
01:21 66.0 °F 63.9 °F 29.92 in SW 2.0 mph 7.0 mph 93% 0.00 in
01:26 65.9 °F 63.8 °F 29.92 in WSW 5.0 mph 6.0 mph 93% 0.00 in
01:31 65.8 °F 63.7 °F 29.91 in West 4.0 mph 7.0 mph 93% 0.00 in
01:36 65.7 °F 63.6 °F 29.91 in SW 4.0 mph 4.0 mph 93% 0.00 in
01:41 65.6 °F 63.5 °F 29.92 in NW 4.0 mph 4.0 mph 93% 0.00 in
01:46 65.7 °F 63.6 °F 29.93 in NNW 4.0 mph 8.0 mph 93% 0.00 in
01:51 65.7 °F 63.6 °F 29.93 in NNW 2.0 mph 6.0 mph 93% 0.00 in
01:56 65.7 °F 63.6 °F 29.92 in NW 2.0 mph 2.0 mph 93% 0.00 in
02:01 65.7 °F 63.6 °F 29.92 in Calm   4.0 mph 93% 0.00 in
02:06 65.6 °F 63.5 °F 29.93 in North 1.0 mph 2.0 mph 93% 0.00 in
02:11 65.6 °F 63.5 °F 29.93 in North 2.0 mph 3.0 mph 93% 0.00 in
02:16 65.6 °F 63.5 °F 29.92 in NNW 2.0 mph 3.0 mph 93% 0.00 in
02:21 65.5 °F 63.4 °F 29.93 in West 1.0 mph 2.0 mph 93% 0.00 in
02:26 65.4 °F 63.3 °F 29.92 in NW 1.0 mph 1.0 mph 93% 0.00 in
02:31 65.4 °F 63.3 °F 29.92 in NNW 1.0 mph 2.0 mph 93% 0.00 in
02:36 65.3 °F 63.2 °F 29.92 in NNW 1.0 mph 2.0 mph 93% 0.00 in
02:41 65.3 °F 63.2 °F 29.92 in NNW 1.0 mph 1.0 mph 93% 0.00 in
02:46 65.2 °F 63.1 °F 29.93 in NNW 2.0 mph 3.0 mph 93% 0.00 in
02:51 65.2 °F 63.1 °F 29.93 in NW 1.0 mph 4.0 mph 93% 0.00 in
02:56 65.1 °F 63.0 °F 29.93 in WNW 1.0 mph 3.0 mph 93% 0.00 in
03:01 65.1 °F 63.0 °F 29.93 in WNW 1.0 mph 2.0 mph 93% 0.00 in
03:06 65.0 °F 62.9 °F 29.93 in NW 2.0 mph 3.0 mph 93% 0.00 in
03:11 64.9 °F 62.8 °F 29.93 in WNW 3.0 mph 3.0 mph 93% 0.00 in
03:16 64.9 °F 62.8 °F 29.93 in NW 3.0 mph 3.0 mph 93% 0.00 in
03:21 64.8 °F 62.7 °F 29.93 in NNW 1.0 mph 2.0 mph 93% 0.00 in
03:26 64.7 °F 62.9 °F 29.93 in NNW 1.0 mph 2.0 mph 94% 0.00 in
03:31 64.6 °F 62.8 °F 29.93 in NNW 1.0 mph 2.0 mph 94% 0.00 in
03:36 64.6 °F 62.8 °F 29.93 in North 3.0 mph 3.0 mph 94% 0.00 in
03:41 64.6 °F 62.8 °F 29.93 in North 1.0 mph 1.0 mph 94% 0.00 in
03:47 64.5 °F 62.7 °F 29.93 in Calm     94% 0.00 in
03:52 64.5 °F 62.7 °F 29.93 in NNW 1.0 mph 1.0 mph 94% 0.00 in
03:57 64.5 °F 62.7 °F 29.93 in WNW 2.0 mph 4.0 mph 94% 0.00 in
04:02 64.4 °F 62.6 °F 29.93 in NW 2.0 mph 3.0 mph 94% 0.00 in
04:07 64.3 °F 62.5 °F 29.92 in NNW 3.0 mph 3.0 mph 94% 0.00 in
04:12 64.3 °F 62.5 °F 29.92 in NNW 3.0 mph 3.0 mph 94% 0.00 in
04:17 64.3 °F 62.5 °F 29.92 in NNW 4.0 mph 5.0 mph 94% 0.00 in
04:22 64.2 °F 62.4 °F 29.92 in NNW 6.0 mph 6.0 mph 94% 0.00 in
04:27 64.2 °F 62.4 °F 29.92 in WNW 3.0 mph 4.0 mph 94% 0.00 in
04:32 64.1 °F 62.3 °F 29.92 in West 1.0 mph 3.0 mph 94% 0.00 in
04:37 64.1 °F 62.3 °F 29.92 in NW 1.0 mph 3.0 mph 94% 0.00 in
04:42 64.1 °F 62.3 °F 29.92 in SW 3.0 mph 3.0 mph 94% 0.00 in
04:47 64.0 °F 62.2 °F 29.92 in Calm   2.0 mph 94% 0.00 in
04:52 64.0 °F 62.2 °F 29.92 in Calm     94% 0.00 in
04:57 64.1 °F 62.3 °F 29.92 in Calm   1.0 mph 94% 0.00 in
05:02 64.1 °F 62.3 °F 29.92 in SW 1.0 mph 1.0 mph 94% 0.00 in
05:07 64.1 °F 62.3 °F 29.93 in WSW 2.0 mph 3.0 mph 94% 0.00 in
05:12 64.1 °F 62.3 °F 29.93 in West 1.0 mph 2.0 mph 94% 0.00 in
05:17 64.1 °F 62.3 °F 29.93 in WSW 1.0 mph 2.0 mph 94% 0.00 in
05:22 64.1 °F 62.3 °F 29.93 in SW 1.0 mph 3.0 mph 94% 0.00 in
05:27 64.1 °F 62.3 °F 29.94 in WSW 1.0 mph 3.0 mph 94% 0.00 in
05:32 64.0 °F 62.2 °F 29.94 in West 2.0 mph 3.0 mph 94% 0.00 in
05:37 64.0 °F 62.2 °F 29.94 in WSW 1.0 mph 2.0 mph 94% 0.00 in
05:42 64.0 °F 62.2 °F 29.94 in WSW 2.0 mph 2.0 mph 94% 0.00 in
05:47 63.9 °F 62.1 °F 29.94 in West 1.0 mph 3.0 mph 94% 0.00 in
05:52 63.8 °F 62.0 °F 29.94 in WNW 2.0 mph 3.0 mph 94% 0.00 in
05:57 63.7 °F 62.0 °F 29.95 in West 1.0 mph 2.0 mph 94% 0.00 in
06:02 63.7 °F 62.0 °F 29.95 in Calm   3.0 mph 94% 0.00 in
06:07 63.7 °F 62.0 °F 29.95 in West 2.0 mph 3.0 mph 94% 0.00 in
06:12 63.7 °F 62.0 °F 29.95 in SW 2.0 mph 3.0 mph 94% 0.00 in
06:17 63.7 °F 62.0 °F 29.95 in Calm   2.0 mph 94% 0.00 in
06:22 63.6 °F 61.8 °F 29.95 in Calm   1.0 mph 94% 0.00 in
06:27 63.6 °F 61.8 °F 29.95 in WSW 1.0 mph 1.0 mph 94% 0.00 in
06:32 63.6 °F 61.8 °F 29.95 in Calm   1.0 mph 94% 0.00 in
06:37 63.6 °F 61.8 °F 29.95 in Calm   1.0 mph 94% 0.00 in
06:42 63.5 °F 61.8 °F 29.96 in Calm     94% 0.00 in
06:47 63.6 °F 61.8 °F 29.96 in Calm   2.0 mph 94% 0.00 in
06:52 63.7 °F 62.0 °F 29.96 in WNW 1.0 mph 1.0 mph 94% 0.00 in
06:57 63.7 °F 62.0 °F 29.96 in NW 1.0 mph 3.0 mph 94% 0.00 in
07:02 63.8 °F 62.0 °F 29.96 in Calm   2.0 mph 94% 0.00 in
07:07 63.8 °F 62.0 °F 29.96 in WNW 3.0 mph 3.0 mph 94% 0.00 in
07:12 63.8 °F 62.0 °F 29.97 in WNW 2.0 mph 3.0 mph 94% 0.00 in
07:17 63.8 °F 62.0 °F 29.97 in WNW 2.0 mph 2.0 mph 94% 0.00 in
07:22 63.7 °F 62.0 °F 29.96 in WNW 2.0 mph 2.0 mph 94% 0.00 in
07:27 63.8 °F 62.0 °F 29.97 in WNW 3.0 mph 3.0 mph 94% 0.00 in
07:32 63.8 °F 62.0 °F 29.96 in West 1.0 mph 2.0 mph 94% 0.00 in
07:37 63.8 °F 62.0 °F 29.97 in WSW 3.0 mph 4.0 mph 94% 0.00 in
07:42 63.9 °F 62.1 °F 29.97 in WNW 2.0 mph 2.0 mph 94% 0.00 in
07:47 64.0 °F 62.2 °F 29.97 in WSW 2.0 mph 3.0 mph 94% 0.00 in
07:52 64.1 °F 62.3 °F 29.97 in WSW 2.0 mph 3.0 mph 94% 0.00 in
07:57 64.0 °F 62.2 °F 29.97 in West 4.0 mph 4.0 mph 94% 0.00 in
08:02 64.1 °F 62.3 °F 29.97 in West 2.0 mph 3.0 mph 94% 0.00 in
08:07 64.1 °F 62.3 °F 29.98 in SW 5.0 mph 5.0 mph 94% 0.00 in
08:12 64.2 °F 62.4 °F 29.98 in WNW 2.0 mph 3.0 mph 94% 0.00 in
08:17 64.3 °F 62.5 °F 29.98 in WSW 2.0 mph 5.0 mph 94% 0.00 in
08:23 64.4 °F 62.6 °F 29.98 in WSW 1.0 mph 7.0 mph 94% 0.00 in
08:28 64.7 °F 62.9 °F 29.98 in West 2.0 mph 4.0 mph 94% 0.00 in
08:33 64.9 °F 63.1 °F 29.99 in WSW 2.0 mph 5.0 mph 94% 0.00 in
08:38 65.1 °F 63.3 °F 29.99 in WNW 4.0 mph 5.0 mph 94% 0.00 in
08:43 65.2 °F 63.4 °F 29.99 in West 3.0 mph 4.0 mph 94% 0.00 in
08:48 65.3 °F 63.5 °F 30.00 in NW 6.0 mph 7.0 mph 94% 0.00 in
08:53 65.4 °F 63.6 °F 30.00 in WNW 4.0 mph 7.0 mph 94% 0.00 in
08:58 65.6 °F 63.8 °F 30.00 in West 4.0 mph 5.0 mph 94% 0.00 in
09:03 65.9 °F 63.8 °F 29.99 in West 3.0 mph 3.0 mph 93% 0.00 in
09:08 66.1 °F 64.0 °F 30.00 in West 6.0 mph 7.0 mph 93% 0.00 in
09:13 66.3 °F 64.2 °F 30.00 in West 2.0 mph 6.0 mph 93% 0.00 in
09:18 66.6 °F 64.5 °F 30.00 in West 4.0 mph 5.0 mph 93% 0.00 in
09:23 66.9 °F 64.8 °F 30.00 in WNW 3.0 mph 3.0 mph 93% 0.00 in
09:28 66.9 °F 64.8 °F 30.00 in WSW 4.0 mph 6.0 mph 93% 0.00 in
09:33 67.1 °F 65.0 °F 30.00 in WNW 3.0 mph 5.0 mph 93% 0.00 in
09:38 67.4 °F 65.3 °F 30.00 in West 5.0 mph 6.0 mph 93% 0.00 in
09:43 67.7 °F 65.6 °F 30.00 in WNW 3.0 mph 6.0 mph 93% 0.00 in
09:48 68.1 °F 66.0 °F 30.00 in WSW 5.0 mph 6.0 mph 93% 0.00 in
09:53 68.4 °F 66.3 °F 30.01 in WSW 3.0 mph 5.0 mph 93% 0.00 in
09:58 68.6 °F 66.5 °F 30.01 in West 5.0 mph 6.0 mph 93% 0.00 in
10:03 68.8 °F 66.7 °F 30.01 in WNW 3.0 mph 7.0 mph 93% 0.00 in
10:08 69.0 °F 66.6 °F 30.01 in West 6.0 mph 7.0 mph 92% 0.00 in
10:13 69.2 °F 66.8 °F 30.01 in West 2.0 mph 5.0 mph 92% 0.00 in
10:18 69.4 °F 67.0 °F 30.01 in West 5.0 mph 5.0 mph 92% 0.00 in
10:23 69.4 °F 66.7 °F 30.01 in NW 5.0 mph 7.0 mph 91% 0.00 in
10:28 69.6 °F 67.2 °F 30.01 in West 3.0 mph 7.0 mph 92% 0.00 in
10:33 70.2 °F 67.8 °F 30.01 in WNW 6.0 mph 7.0 mph 92% 0.00 in
10:38 70.7 °F 67.9 °F 30.01 in WSW 8.0 mph 8.0 mph 91% 0.00 in
10:43 71.0 °F 68.2 °F 30.01 in West 4.0 mph 8.0 mph 91% 0.00 in
10:48 71.4 °F 68.6 °F 30.01 in WNW 6.0 mph 6.0 mph 91% 0.00 in
10:53 71.8 °F 68.7 °F 30.01 in WNW 5.0 mph 8.0 mph 90% 0.00 in
10:58 71.9 °F 68.5 °F 30.01 in WSW 7.0 mph 7.0 mph 89% 0.00 in
11:03 72.3 °F 69.2 °F 30.02 in West 2.0 mph 6.0 mph 90% 0.00 in
11:08 72.7 °F 69.3 °F 30.02 in WSW 6.0 mph 7.0 mph 89% 0.00 in
11:13 73.3 °F 69.9 °F 30.02 in West 5.0 mph 6.0 mph 89% 0.00 in
11:18 73.4 °F 69.0 °F 30.03 in West 12.0 mph 12.0 mph 86% 0.00 in
11:23 73.3 °F 69.2 °F 30.02 in WNW 5.0 mph 12.0 mph 87% 0.00 in
11:28 73.3 °F 68.9 °F 30.02 in WSW 6.0 mph 11.0 mph 86% 0.00 in
11:34 73.5 °F 68.7 °F 30.03 in WNW 5.0 mph 10.0 mph 85% 0.00 in
11:39 73.5 °F 68.7 °F 30.03 in WSW 12.0 mph 12.0 mph 85% 0.00 in
11:44 73.6 °F 68.5 °F 30.03 in WNW 5.0 mph 9.0 mph 84% 0.00 in
11:49 74.0 °F 69.2 °F 30.03 in WSW 7.0 mph 8.0 mph 85% 0.00 in
11:54 74.5 °F 69.7 °F 30.03 in WSW 7.0 mph 8.0 mph 85% 0.00 in
11:59 74.6 °F 69.4 °F 30.02 in NW 7.0 mph 7.0 mph 84% 0.00 in
12:04 74.6 °F 69.4 °F 30.02 in West 7.0 mph 8.0 mph 84% 0.00 in
12:09 75.0 °F 70.2 °F 30.02 in WNW 4.0 mph 6.0 mph 85% 0.00 in
12:14 75.3 °F 69.4 °F 30.02 in West 7.0 mph 8.0 mph 82% 0.00 in
12:19 75.1 °F 69.6 °F 30.02 in WNW 4.0 mph 7.0 mph 83% 0.00 in
12:24 75.0 °F 69.8 °F 30.02 in West 4.0 mph 7.0 mph 84% 0.00 in
12:29 74.7 °F 68.1 °F 30.02 in West 5.0 mph 9.0 mph 80% 0.00 in
12:34 74.3 °F 68.4 °F 30.02 in WNW 5.0 mph 8.0 mph 82% 0.00 in
12:39 74.4 °F 68.6 °F 30.01 in West 3.0 mph 7.0 mph 82% 0.00 in
12:44 74.9 °F 69.7 °F 30.01 in WSW 4.0 mph 6.0 mph 84% 0.00 in
12:49 75.1 °F 69.6 °F 30.02 in WNW 5.0 mph 7.0 mph 83% 0.00 in
12:54 75.2 °F 69.3 °F 30.02 in WNW 5.0 mph 7.0 mph 82% 0.00 in
12:59 75.5 °F 68.9 °F 30.02 in SW 5.0 mph 9.0 mph 80% 0.00 in
13:04 75.2 °F 69.0 °F 30.02 in WNW 5.0 mph 10.0 mph 81% 0.00 in
13:09 75.3 °F 69.1 °F 30.02 in WSW 9.0 mph 9.0 mph 81% 0.00 in
13:14 75.7 °F 69.8 °F 30.02 in West 5.0 mph 10.0 mph 82% 0.00 in
13:19 76.1 °F 68.8 °F 30.02 in WNW 4.0 mph 12.0 mph 78% 0.00 in
13:24 76.6 °F 70.0 °F 30.02 in WNW 8.0 mph 11.0 mph 80% 0.00 in
13:29 76.2 °F 68.8 °F 30.02 in NW 7.0 mph 11.0 mph 78% 0.00 in
13:34 76.4 °F 69.0 °F 30.02 in WSW 3.0 mph 10.0 mph 78% 0.00 in
13:39 76.6 °F 68.5 °F 30.01 in NW 5.0 mph 12.0 mph 76% 0.00 in
13:44 76.2 °F 68.5 °F 30.02 in WNW 7.0 mph 9.0 mph 77% 0.00 in
13:49 75.7 °F 68.4 °F 30.02 in West 4.0 mph 12.0 mph 78% 0.00 in
13:54 75.5 °F 68.2 °F 30.01 in WNW 6.0 mph 10.0 mph 78% 0.00 in
13:59 75.7 °F 69.1 °F 30.01 in WNW 5.0 mph 9.0 mph 80% 0.00 in
14:04 76.2 °F 68.5 °F 30.01 in WNW 7.0 mph 11.0 mph 77% 0.00 in
14:09 76.2 °F 68.5 °F 30.01 in WNW 5.0 mph 9.0 mph 77% 0.00 in
14:14 76.7 °F 68.9 °F 30.00 in WNW 4.0 mph 11.0 mph 77% 0.00 in
14:19 76.8 °F 69.4 °F 30.00 in WNW 5.0 mph 10.0 mph 78% 0.00 in
14:24 76.7 °F 68.6 °F 30.00 in West 6.0 mph 14.0 mph 76% 0.00 in
14:29 77.0 °F 68.5 °F 30.00 in WSW 10.0 mph 10.0 mph 75% 0.00 in
14:34 77.3 °F 68.4 °F 30.00 in West 12.0 mph 13.0 mph 74% 0.00 in
14:39 77.4 °F 68.5 °F 30.00 in WNW 4.0 mph 8.0 mph 74% 0.00 in
14:44 77.8 °F 68.9 °F 29.99 in WNW 5.0 mph 12.0 mph 74% 0.00 in
14:49 78.5 °F 69.5 °F 29.99 in WNW 9.0 mph 11.0 mph 74% 0.00 in
14:54 77.9 °F 68.9 °F 30.00 in West 9.0 mph 12.0 mph 74% 0.00 in
14:59 77.7 °F 68.8 °F 30.00 in WNW 10.0 mph 13.0 mph 74% 0.00 in
15:04 77.2 °F 69.4 °F 29.99 in NW 7.0 mph 11.0 mph 77% 0.00 in
15:09 77.0 °F 69.6 °F 29.99 in WNW 3.0 mph 8.0 mph 78% 0.00 in
15:14 77.7 °F 69.9 °F 29.98 in WNW 3.0 mph 10.0 mph 77% 0.00 in
15:19 77.6 °F 68.3 °F 29.98 in West 7.0 mph 11.0 mph 73% 0.00 in
15:25 77.7 °F 68.4 °F 29.98 in WNW 4.0 mph 12.0 mph 73% 0.00 in
15:30 77.9 °F 68.9 °F 29.98 in NNW 4.0 mph 12.0 mph 74% 0.00 in
15:35 77.8 °F 68.1 °F 29.98 in NW 11.0 mph 11.0 mph 72% 0.00 in
15:40 77.9 °F 68.9 °F 29.97 in WNW 6.0 mph 11.0 mph 74% 0.00 in
15:45 78.3 °F 68.9 °F 29.97 in NW 12.0 mph 12.0 mph 73% 0.00 in
15:50 78.6 °F 68.4 °F 29.97 in WNW 7.0 mph 10.0 mph 71% 0.00 in
15:55 78.6 °F 68.8 °F 29.97 in WNW 5.0 mph 10.0 mph 72% 0.00 in
16:00 79.2 °F 69.0 °F 29.97 in WNW 6.0 mph 9.0 mph 71% 0.00 in
16:05 79.3 °F 69.1 °F 29.97 in NW 11.0 mph 11.0 mph 71% 0.00 in
16:10 79.0 °F 69.2 °F 29.96 in NW 3.0 mph 10.0 mph 72% 0.00 in
16:15 79.0 °F 68.8 °F 29.96 in NW 3.0 mph 7.0 mph 71% 0.00 in
16:20 79.4 °F 69.6 °F 29.96 in WNW 4.0 mph 8.0 mph 72% 0.00 in
16:25 79.6 °F 70.6 °F 29.96 in NW 9.0 mph 9.0 mph 74% 0.00 in
16:30 79.4 °F 68.3 °F 29.95 in NW 9.0 mph 12.0 mph 69% 0.00 in
16:35 79.7 °F 69.1 °F 29.95 in WNW 6.0 mph 9.0 mph 70% 0.00 in
16:40 79.9 °F 69.7 °F 29.95 in WNW 6.0 mph 12.0 mph 71% 0.00 in
16:45 80.0 °F 69.3 °F 29.95 in West 7.0 mph 11.0 mph 70% 0.00 in
16:50 80.2 °F 70.4 °F 29.95 in NW 4.0 mph 8.0 mph 72% 0.00 in
16:55 80.5 °F 69.0 °F 29.94 in WNW 13.0 mph 13.0 mph 68% 0.00 in
17:00 80.2 °F 68.3 °F 29.94 in NNW 8.0 mph 14.0 mph 67% 0.00 in
17:05 80.1 °F 68.6 °F 29.94 in WNW 8.0 mph 11.0 mph 68% 0.00 in
17:10 80.2 °F 69.5 °F 29.94 in NNW 5.0 mph 11.0 mph 70% 0.00 in
17:15 80.3 °F 68.8 °F 29.94 in WNW 5.0 mph 9.0 mph 68% 0.00 in
17:20 80.4 °F 70.1 °F 29.94 in WNW 5.0 mph 8.0 mph 71% 0.00 in
17:25 80.7 °F 70.8 °F 29.94 in North 10.0 mph 12.0 mph 72% 0.00 in
17:30 80.7 °F 69.2 °F 29.94 in NW 9.0 mph 10.0 mph 68% 0.00 in
17:35 80.8 °F 70.5 °F 29.94 in NNW 6.0 mph 13.0 mph 71% 0.00 in
17:40 80.5 °F 69.4 °F 29.94 in WNW 7.0 mph 10.0 mph 69% 0.00 in
17:45 80.4 °F 69.7 °F 29.94 in West 8.0 mph 12.0 mph 70% 0.00 in
17:50 80.3 °F 68.8 °F 29.94 in WNW 7.0 mph 9.0 mph 68% 0.00 in
17:56 80.6 °F 68.6 °F 29.94 in NW 8.0 mph 11.0 mph 67% 0.00 in
18:01 80.6 °F 69.9 °F 29.94 in NW 7.0 mph 10.0 mph 70% 0.00 in
18:06 81.0 °F 71.1 °F 29.94 in NW 6.0 mph 6.0 mph 72% 0.00 in
18:11 81.1 °F 70.0 °F 29.93 in NNE 8.0 mph 9.0 mph 69% 0.00 in
18:16 80.8 °F 69.7 °F 29.94 in NNW 5.0 mph 10.0 mph 69% 0.00 in
18:21 80.9 °F 70.2 °F 29.93 in NW 9.0 mph 9.0 mph 70% 0.00 in
18:26 80.7 °F 68.7 °F 29.93 in NW 7.0 mph 9.0 mph 67% 0.00 in
18:31 80.5 °F 69.0 °F 29.93 in WNW 6.0 mph 8.0 mph 68% 0.00 in
18:36 80.4 °F 68.4 °F 29.93 in NNW 6.0 mph 10.0 mph 67% 0.00 in
18:41 80.4 °F 68.9 °F 29.93 in WNW 7.0 mph 11.0 mph 68% 0.00 in
18:46 80.5 °F 70.2 °F 29.93 in NW 4.0 mph 6.0 mph 71% 0.00 in
18:51 80.5 °F 70.2 °F 29.93 in NW 3.0 mph 7.0 mph 71% 0.00 in
18:56 80.3 °F 69.2 °F 29.93 in NW 5.0 mph 9.0 mph 69% 0.00 in
19:01 80.2 °F 69.1 °F 29.93 in NW 6.0 mph 8.0 mph 69% 0.00 in
19:06 80.0 °F 69.3 °F 29.93 in NW 4.0 mph 7.0 mph 70% 0.00 in
19:11 80.0 °F 69.3 °F 29.93 in WNW 3.0 mph 6.0 mph 70% 0.00 in
19:16 79.7 °F 69.1 °F 29.93 in NW 5.0 mph 8.0 mph 70% 0.00 in
19:21 79.7 °F 69.9 °F 29.93 in NW 4.0 mph 5.0 mph 72% 0.00 in
19:26 79.7 °F 69.9 °F 29.93 in NNW 3.0 mph 5.0 mph 72% 0.00 in
19:31 79.5 °F 69.7 °F 29.93 in NNW 3.0 mph 4.0 mph 72% 0.00 in
19:36 79.1 °F 69.3 °F 29.93 in NNW 4.0 mph 6.0 mph 72% 0.00 in
19:41 79.3 °F 69.5 °F 29.93 in NW 3.0 mph 4.0 mph 72% 0.00 in
19:46 79.5 °F 70.1 °F 29.93 in NW 4.0 mph 5.0 mph 73% 0.00 in
19:51 79.5 °F 69.3 °F 29.93 in NW 5.0 mph 5.0 mph 71% 0.00 in
19:56 79.3 °F 69.1 °F 29.93 in NNW 5.0 mph 6.0 mph 71% 0.00 in
20:01 78.9 °F 68.3 °F 29.93 in NNW 5.0 mph 7.0 mph 70% 0.00 in
20:06 78.5 °F 67.9 °F 29.93 in NW 4.0 mph 5.0 mph 70% 0.00 in
20:11 78.1 °F 67.9 °F 29.93 in NNW 3.0 mph 5.0 mph 71% 0.00 in
20:16 77.9 °F 67.8 °F 29.93 in NNW 4.0 mph 5.0 mph 71% 0.00 in
20:21 77.5 °F 67.8 °F 29.93 in NNW 4.0 mph 5.0 mph 72% 0.00 in
20:26 76.9 °F 67.6 °F 29.93 in NW 3.0 mph 5.0 mph 73% 0.00 in
20:31 76.4 °F 67.9 °F 29.93 in NW 2.0 mph 4.0 mph 75% 0.00 in
20:36 76.0 °F 67.9 °F 29.93 in WNW 2.0 mph 3.0 mph 76% 0.00 in
20:42 75.6 °F 67.9 °F 29.93 in WNW 1.0 mph 2.0 mph 77% 0.00 in
20:47 75.3 °F 67.6 °F 29.93 in WNW 1.0 mph 2.0 mph 77% 0.00 in
20:52 75.0 °F 67.7 °F 29.94 in NW 2.0 mph 4.0 mph 78% 0.00 in
20:57 74.6 °F 67.3 °F 29.94 in NW 2.0 mph 5.0 mph 78% 0.00 in
21:02 74.3 °F 67.4 °F 29.94 in NNW 2.0 mph 3.0 mph 79% 0.00 in
21:07 74.0 °F 67.1 °F 29.94 in NNW 2.0 mph 3.0 mph 79% 0.00 in
21:12 73.8 °F 67.2 °F 29.93 in NNW 2.0 mph 3.0 mph 80% 0.00 in
21:17 73.5 °F 67.3 °F 29.94 in NW 1.0 mph 2.0 mph 81% 0.00 in
21:22 73.3 °F 67.1 °F 29.94 in Calm   1.0 mph 81% 0.00 in
21:27 73.2 °F 67.0 °F 29.94 in NW 1.0 mph 2.0 mph 81% 0.00 in
21:32 73.2 °F 67.0 °F 29.95 in NW 2.0 mph 2.0 mph 81% 0.00 in
21:37 73.0 °F 67.2 °F 29.95 in NW 1.0 mph 1.0 mph 82% 0.00 in
21:42 72.7 °F 66.9 °F 29.95 in Calm   1.0 mph 82% 0.00 in
21:47 72.4 °F 66.9 °F 29.95 in NW 1.0 mph 1.0 mph 83% 0.00 in
21:52 72.3 °F 66.8 °F 29.95 in WNW 1.0 mph 2.0 mph 83% 0.00 in
21:57 72.3 °F 66.8 °F 29.96 in NW 1.0 mph 1.0 mph 83% 0.00 in
22:02 72.3 °F 66.5 °F 29.96 in NW 2.0 mph 3.0 mph 82% 0.00 in
22:07 72.2 °F 66.4 °F 29.96 in NW 1.0 mph 5.0 mph 82% 0.00 in
22:12 72.1 °F 66.3 °F 29.96 in NW 3.0 mph 5.0 mph 82% 0.00 in
22:17 72.0 °F 66.2 °F 29.96 in NW 2.0 mph 5.0 mph 82% 0.00 in
22:22 72.0 °F 66.2 °F 29.97 in NW 3.0 mph 4.0 mph 82% 0.00 in
22:27 71.8 °F 66.4 °F 29.97 in NW 3.0 mph 4.0 mph 83% 0.00 in
22:32 71.8 °F 66.4 °F 29.97 in NW 3.0 mph 5.0 mph 83% 0.00 in
22:37 71.8 °F 66.4 °F 29.98 in NNW 2.0 mph 5.0 mph 83% 0.00 in
22:43 71.8 °F 66.0 °F 29.98 in NNW 3.0 mph 4.0 mph 82% 0.00 in
22:48 71.7 °F 66.3 °F 29.98 in NNW 2.0 mph 4.0 mph 83% 0.00 in
22:53 71.6 °F 66.2 °F 29.98 in NNW 2.0 mph 3.0 mph 83% 0.00 in
22:58 71.5 °F 66.1 °F 29.98 in NW 1.0 mph 3.0 mph 83% 0.00 in
23:03 71.4 °F 66.3 °F 29.99 in NW 2.0 mph 2.0 mph 84% 0.00 in
23:08 71.2 °F 66.1 °F 29.98 in NNW 2.0 mph 3.0 mph 84% 0.00 in
23:13 71.1 °F 66.0 °F 29.99 in NW 1.0 mph 3.0 mph 84% 0.00 in
23:18 71.1 °F 66.0 °F 29.99 in NNW 1.0 mph 2.0 mph 84% 0.00 in
23:23 71.0 °F 65.9 °F 29.99 in NW 1.0 mph 2.0 mph 84% 0.00 in
23:28 70.9 °F 66.2 °F 29.99 in NW 1.0 mph 2.0 mph 85% 0.00 in
23:33 70.7 °F 66.0 °F 29.99 in NNW 2.0 mph 4.0 mph 85% 0.00 in
23:38 70.6 °F 65.9 °F 29.99 in NW 2.0 mph 3.0 mph 85% 0.00 in
23:43 70.5 °F 65.8 °F 29.99 in NNW 2.0 mph 3.0 mph 85% 0.00 in
23:48 70.4 °F 66.0 °F 29.99 in NNW 3.0 mph 4.0 mph 86% 0.00 in
23:53 70.2 °F 65.8 °F 29.99 in North 2.0 mph 3.0 mph 86% 0.00 in
23:58 70.2 °F 65.8 °F 29.99 in NNW 2.0 mph 3.0 mph 86% 0.00 in
Compliments of Weather Underground